Barcelona, Spain

3:53 AM CET on October 26, 2014 (GMT +0100)
Viladecans | Change Station
CLOSE
Current Station
Personal Weather Station
Location: Viladecans, CATALUñA, CATALONIA
Elevation: 100 ft
Nearby Weather Stations

Elev 100 ft 41.32 °N, 2.01 °E | Updated 5 seconds ago

Partly Cloudy
Partly Cloudy
64.6 °F
Feels Like 64.6 °F
N
2.9
Wind Variable Wind from ESE
Gusts 3.0 mph

Today
High -- | Low -- °F
--% Chance of Precip.
Yesterday
High -- | Low -- °F
Precip. -- in
7:15 AM 5:55 PM
Waxing Crescent, 5% visible
Pressure 30.15 in
Visibility 5.6 miles
Clouds Few 1300 ft
Dew Point 57 °F
Humidity 77%
Rainfall 0.00 in
Snow Depth Not available.
UV 0 out of 12
Pollen Not available.
Air Quality Not available.
Flu Activity Not available.
METAR LEBL 260230Z 33006KT 9000 FEW013 17/14 Q1021 NOSIG

More Conditions Fewer Conditions

Pressure 30.15 in
Visibility 5.6 miles
Clouds Few 1300 ft
Dew Point 57 °F
Humidity 77%
Rainfall 0.00 in
Snow Depth Not available.
UV 0 out of 12
Pollen Not available.
Air Quality Not available.
Flu Activity Not available.
METAR LEBL 260230Z 33006KT 9000 FEW013 17/14 Q1021 NOSIG

More Conditions Fewer Conditions

10-Day Weather Forecast

Almanac

Astronomy

Oct. 26, 2014 Rise Set
Actual Time 7:15 AM CET 5:55 PM CET
Civil Twilight 6:47 AM CET 6:23 PM CET
Nautical Twilight 6:15 AM CET 6:55 PM CET
Astronomical Twilight 5:42 AM CET 7:27 PM CET
Moon 9:39 AM CET 7:52 PM CET
Length Of Visible Light 11h 36m
Length of Day
10h 39m
Tomorrow will be 2m 31s shorter.
Waxing Crescent, 5% of the Moon is Illuminated
Oct 25
Waxing Crescent
Oct 30
First Quarter
Nov 6
Full
Nov 14
Last Quarter
Nov 22
New

Yesterday's Extremes

Country Highs Country Lows

Community

WunderPhotos

Upload Photos

1,765,086 photos uploaded!

Nearby

Snow Depth

Not available.

Earthquake Activity

City Distance Mag. Time & Date
No recent earthquake activity has been reported nearby.
Minimum magnitude displayed is 2.5.

Coastal Water Temperatures

Place Temperature
No Stations Reporting

Nearby Weather Stations